This is the latest recevied weather packets stored in our database for station/object CE1JFB-10. If no packets are shown the sender has not sent any weather packets the latest 10 day(s).
| Time | Temp. | Humidity | Pressure | Rain* | Wind** | Luminosity | Snow |
|---|---|---|---|---|---|---|---|
| 1778074263 | 23.33° C | 58% | 1015.1 hPa | - | - | - | - |
| 1778070663 | 21.11° C | 62% | 1014.8 hPa | - | - | - | - |
| 1778067063 | 20° C | 63% | 1014.5 hPa | - | - | - | - |
| 1778063463 | 20° C | 64% | 1013.6 hPa | - | - | - | - |
| 1778059858 | 20° C | 62% | 1013 hPa | - | - | - | - |
| 1778056258 | 20° C | 62% | 1012.9 hPa | - | - | - | - |
| 1778052658 | 20° C | 62% | 1012.9 hPa | - | - | - | - |
| 1778049058 | 20° C | 61% | 1012.9 hPa | - | - | - | - |
| 1778045458 | 20.56° C | 61% | 1013.2 hPa | - | - | - | - |
| 1778041857 | 21.11° C | 61% | 1013.4 hPa | - | - | - | - |
| 1778038257 | 21.67° C | 60% | 1013.5 hPa | - | - | - | - |
| 1778034657 | 21.67° C | 60% | 1013.8 hPa | - | - | - | - |
| 1778031057 | 22.22° C | 60% | 1013.8 hPa | - | - | - | - |
| 1778027457 | 22.22° C | 60% | 1013 hPa | - | - | - | - |
| 1778023857 | 22.78° C | 59% | 1012.4 hPa | - | - | - | - |
| 1778020257 | 23.33° C | 58% | 1011.7 hPa | - | - | - | - |
| 1778016657 | 23.33° C | 56% | 1011.1 hPa | - | - | - | - |
| 1778013057 | 23.89° C | 55% | 1010.6 hPa | - | - | - | - |
| 1778009456 | 24.44° C | 53% | 1010.2 hPa | - | - | - | - |
| 1778005856 | 24.44° C | 52% | 1010.4 hPa | - | - | - | - |
| 1778002255 | 24.44° C | 53% | 1011.2 hPa | - | - | - | - |
| 1777998655 | 23.89° C | 54% | 1011.7 hPa | - | - | - | - |
| 1777995055 | 23.33° C | 57% | 1012.3 hPa | - | - | - | - |
| 1777991455 | 22.78° C | 57% | 1012.6 hPa | - | - | - | - |
| 1777987855 | 23.33° C | 55% | 1012.6 hPa | - | - | - | - |
* Rain since midnight (hover to see other rain measurements)
** Current wind speed in m/s (hover to see current wind gust speed)